Gunnison, Colorado
Current Conditions -  °F | °C
As of 12:15 PM on Monday 22 Dec 2014 (Local Time) from KGUC Reporting Station
Overcast Overcast  
Wind Chill: 17°   Ceiling: 1100
Heat Index: 28°   Visibility: 0.75mi
Dew Point: 23°   Wind: 15mph
Humidity: 80%   Direction: 330°NNW
Pressure: 29.74"   Gusts: 24mph
Location:  38.55°N, 106.92°W
Report Text: KGUC 221915Z AUTO 33013G21KT 3/4SM OVC011 M02/M05 A2974 RMK AO1
Loading
Personal Weather Stations






























Interactive Weather Map New forecast layout! Learn more

10-Day Weather Forecast

Advertisements
Track Severe Weather on mobile